createdAt,value
2018-10-12T00:02:21.853Z,15.03
2018-10-12T00:04:52.073Z,14.99
2018-10-12T00:07:21.999Z,14.67
2018-10-12T00:09:52.005Z,14.55
2018-10-12T00:12:21.852Z,14.64
2018-10-12T00:14:51.745Z,14.86
2018-10-12T00:17:21.442Z,14.84
2018-10-12T00:19:51.353Z,15.23
2018-10-12T00:22:21.108Z,14.96
2018-10-12T00:24:51.573Z,14.82
2018-10-12T00:27:21.360Z,14.79
2018-10-12T00:29:51.075Z,14.76
2018-10-12T00:32:20.745Z,14.80
2018-10-12T00:34:50.382Z,15.03
2018-10-12T00:37:20.038Z,15.05
2018-10-12T00:39:49.716Z,15.46
2018-10-12T00:42:19.189Z,15.59
2018-10-12T00:44:48.625Z,15.68
2018-10-12T00:47:18.210Z,15.72
2018-10-12T00:49:47.708Z,15.64
2018-10-12T00:52:17.016Z,15.52
2018-10-12T00:54:46.378Z,15.51
2018-10-12T00:57:15.812Z,15.54
2018-10-12T00:59:45.227Z,16.00
2018-10-12T01:02:14.548Z,15.92
2018-10-12T01:04:43.863Z,15.93
2018-10-12T01:07:13.755Z,15.75
2018-10-12T01:09:43.381Z,15.67
2018-10-12T01:12:35.448Z,15.63
2018-10-12T01:15:05.211Z,15.60
2018-10-12T01:17:35.217Z,15.52
2018-10-12T01:20:05.529Z,15.44
2018-10-12T01:22:35.118Z,15.26
2018-10-12T01:25:06.409Z,15.06
2018-10-12T01:27:35.776Z,14.98
2018-10-12T01:30:06.100Z,14.90
2018-10-12T01:32:40.589Z,14.77
2018-10-12T01:35:10.276Z,14.65
2018-10-12T01:37:39.794Z,14.61
2018-10-12T01:40:09.056Z,14.51
2018-10-12T01:42:38.394Z,14.31
2018-10-12T01:45:07.746Z,14.26
2018-10-12T01:47:37.171Z,14.12
2018-10-12T01:50:06.458Z,14.00
2018-10-12T01:52:35.766Z,13.96
2018-10-12T01:55:05.058Z,13.86
2018-10-12T01:57:34.371Z,13.78
2018-10-12T02:00:03.774Z,13.59
2018-10-12T02:02:33.102Z,13.54
2018-10-12T02:05:02.370Z,13.55
2018-10-12T02:07:31.730Z,13.43
2018-10-12T02:10:01.116Z,13.34
2018-10-12T02:12:30.545Z,13.33
2018-10-12T02:14:59.943Z,13.29
2018-10-12T02:17:29.387Z,13.34
2018-10-12T02:19:58.781Z,13.46
2018-10-12T02:22:28.176Z,13.43
2018-10-12T02:24:57.758Z,13.38
2018-10-12T02:27:27.248Z,13.34
2018-10-12T02:29:56.850Z,13.43
2018-10-12T02:32:26.339Z,13.38
2018-10-12T02:34:55.998Z,13.34
2018-10-12T02:37:25.493Z,13.25
2018-10-12T02:39:55.269Z,13.24
2018-10-12T02:42:24.777Z,13.18
2018-10-12T02:44:54.734Z,13.11
2018-10-12T02:47:24.335Z,13.11
2018-10-12T02:49:54.157Z,13.13
2018-10-12T02:52:23.997Z,13.12
2018-10-12T02:54:53.656Z,13.17
2018-10-12T02:57:23.230Z,13.30
2018-10-12T02:59:53.114Z,13.33
2018-10-12T03:02:22.949Z,13.26
2018-10-12T03:04:52.746Z,13.20
2018-10-12T03:07:22.778Z,13.22
2018-10-12T03:09:52.493Z,13.24
2018-10-12T03:12:22.214Z,13.30
2018-10-12T03:14:52.162Z,13.36
2018-10-12T03:17:21.877Z,13.37
2018-10-12T03:19:51.509Z,13.37
2018-10-12T03:22:21.350Z,13.24
2018-10-12T03:24:51.063Z,13.21
2018-10-12T03:27:20.636Z,13.17
2018-10-12T03:29:50.201Z,13.06
2018-10-12T03:32:19.785Z,13.02
2018-10-12T03:34:49.351Z,12.91
2018-10-12T03:37:18.997Z,12.94
2018-10-12T03:39:48.463Z,12.95
2018-10-12T03:42:17.756Z,12.93
2018-10-12T03:44:47.066Z,12.98
2018-10-12T03:47:16.420Z,13.05
2018-10-12T03:49:46.750Z,13.11
2018-10-12T03:52:17.075Z,13.28
2018-10-12T03:54:46.567Z,13.35
2018-10-12T03:57:17.134Z,13.33
2018-10-12T03:59:46.463Z,13.30
2018-10-12T04:02:15.720Z,13.19
2018-10-12T04:04:45.012Z,13.14
2018-10-12T04:07:14.369Z,13.06
2018-10-12T04:09:43.804Z,12.95
2018-10-12T04:12:13.228Z,12.98
2018-10-12T04:14:42.663Z,13.03
2018-10-12T04:17:11.946Z,12.94
2018-10-12T04:19:41.403Z,12.85
2018-10-12T04:22:10.902Z,12.71
2018-10-12T04:24:40.386Z,12.56
2018-10-12T04:27:09.759Z,12.53
2018-10-12T04:29:39.060Z,12.52
2018-10-12T04:32:08.449Z,12.78
2018-10-12T04:34:37.731Z,13.05
2018-10-12T04:37:07.260Z,13.09
2018-10-12T04:41:55.290Z,13.01
2018-10-12T04:44:24.788Z,12.76
2018-10-12T04:46:54.259Z,12.73
2018-10-12T04:49:23.856Z,12.63
2018-10-12T04:51:56.897Z,12.52
2018-10-12T04:54:26.839Z,12.49
2018-10-12T04:56:56.321Z,12.54
2018-10-12T04:59:25.846Z,12.54
2018-10-12T05:01:55.419Z,12.51
2018-10-12T05:04:25.079Z,12.44
2018-10-12T05:06:54.662Z,12.45
2018-10-12T05:09:24.952Z,12.46
2018-10-12T05:11:54.590Z,12.60
2018-10-12T05:14:24.038Z,12.63
2018-10-12T05:16:53.868Z,12.54
2018-10-12T05:19:23.104Z,12.45
2018-10-12T05:21:53.039Z,12.44
2018-10-12T05:24:22.879Z,12.43
2018-10-12T05:26:52.757Z,12.27
2018-10-12T05:29:22.967Z,12.24
2018-10-12T05:31:52.586Z,12.23
2018-10-12T05:34:22.707Z,12.17
2018-10-12T05:36:52.363Z,12.17
2018-10-12T05:39:22.023Z,12.23
2018-10-12T05:41:51.696Z,12.24
2018-10-12T05:44:21.387Z,12.28
2018-10-12T05:46:50.931Z,12.27
2018-10-12T05:49:37.144Z,12.21
2018-10-12T05:52:06.471Z,12.11
2018-10-12T05:54:35.779Z,12.12
2018-10-12T05:57:05.347Z,12.13
2018-10-12T05:59:34.658Z,12.10
2018-10-12T06:02:04.052Z,12.15
2018-10-12T06:04:33.356Z,12.14
2018-10-12T06:07:02.882Z,12.20
2018-10-12T06:09:32.237Z,12.38
2018-10-12T06:12:01.470Z,12.90
2018-10-12T06:14:30.766Z,12.95
2018-10-12T06:17:00.148Z,12.72
2018-10-12T06:19:29.440Z,12.71
2018-10-12T06:21:58.765Z,12.77
2018-10-12T06:24:28.322Z,12.78
2018-10-12T06:26:57.746Z,12.77
2018-10-12T06:29:27.276Z,12.84
2018-10-12T06:31:56.678Z,12.96
2018-10-12T06:34:26.248Z,13.06
2018-10-12T06:36:55.894Z,13.14
2018-10-12T06:39:25.430Z,13.25
2018-10-12T06:41:55.078Z,13.40
2018-10-12T06:44:24.693Z,13.51
2018-10-12T06:46:54.255Z,13.64
2018-10-12T06:49:23.903Z,13.81
2018-10-12T06:51:53.339Z,14.02
2018-10-12T06:54:22.908Z,14.11
2018-10-12T06:56:52.426Z,14.38
2018-10-12T06:59:22.072Z,14.38
2018-10-12T07:01:51.649Z,14.51
2018-10-12T07:04:21.186Z,14.84
2018-10-12T07:06:50.830Z,15.01
2018-10-12T07:09:20.486Z,15.10
2018-10-12T07:11:49.890Z,15.15
2018-10-12T07:14:19.217Z,15.17
2018-10-12T07:16:49.049Z,15.62
2018-10-12T07:19:19.349Z,15.93
2018-10-12T07:21:48.696Z,15.94
2018-10-12T07:24:18.183Z,16.06
2018-10-12T07:26:47.522Z,16.11
2018-10-12T07:29:16.897Z,16.23
2018-10-12T07:31:46.195Z,16.23
2018-10-12T07:34:15.651Z,16.46
2018-10-12T07:36:44.989Z,16.82
2018-10-12T07:39:14.663Z,17.12
2018-10-12T07:41:43.615Z,17.31
2018-10-12T07:44:12.935Z,17.59
2018-10-12T07:46:42.346Z,17.70
2018-10-12T07:49:11.750Z,17.86
2018-10-12T07:51:41.271Z,17.93
2018-10-12T07:54:10.632Z,18.14
2018-10-12T07:56:39.934Z,18.33
2018-10-12T07:59:09.250Z,18.39
2018-10-12T08:01:38.514Z,18.36
2018-10-12T08:04:07.864Z,18.52
2018-10-12T08:06:37.242Z,18.77
2018-10-12T08:09:08.558Z,19.02
2018-10-12T08:11:38.291Z,19.29
2018-10-12T08:14:07.709Z,19.51
2018-10-12T08:16:36.978Z,19.64
2018-10-12T08:19:06.760Z,19.84
2018-10-12T08:21:36.030Z,19.98
2018-10-12T08:24:05.312Z,20.11
2018-10-12T08:26:34.565Z,20.24
2018-10-12T08:29:03.927Z,20.41
2018-10-12T08:31:33.383Z,20.50
2018-10-12T08:34:02.635Z,20.58
2018-10-12T08:36:32.013Z,20.69
2018-10-12T08:39:01.214Z,20.92
2018-10-12T08:41:30.474Z,21.05
2018-10-12T08:43:59.803Z,21.17
2018-10-12T08:46:29.213Z,21.24
2018-10-12T08:48:58.512Z,21.27
2018-10-12T08:51:28.000Z,21.31
2018-10-12T08:53:57.301Z,21.36
2018-10-12T08:56:26.840Z,21.28
2018-10-12T08:58:56.324Z,21.00
2018-10-12T09:01:25.759Z,21.36
2018-10-12T09:03:55.370Z,21.28
2018-10-12T09:06:24.920Z,21.29
2018-10-12T09:08:54.607Z,21.07
2018-10-12T09:11:24.219Z,21.29
2018-10-12T09:13:53.667Z,21.65
2018-10-12T09:16:23.345Z,21.57
2018-10-12T09:18:52.832Z,21.48
2018-10-12T09:21:22.411Z,21.53
2018-10-12T09:23:52.056Z,21.96
2018-10-12T09:26:21.642Z,22.36
2018-10-12T09:28:51.079Z,22.31
2018-10-12T09:31:20.680Z,22.50
2018-10-12T09:33:50.251Z,22.52
2018-10-12T09:36:19.784Z,22.70
2018-10-12T09:38:49.189Z,22.83
2018-10-12T09:41:18.655Z,22.65
2018-10-12T09:43:48.239Z,23.13
2018-10-12T09:46:17.551Z,23.24
2018-10-12T09:48:46.918Z,23.19
2018-10-12T09:51:16.305Z,23.29
2018-10-12T09:53:45.679Z,23.20
2018-10-12T09:56:14.983Z,23.14
2018-10-12T09:58:44.517Z,23.21
2018-10-12T10:01:19.047Z,23.47
2018-10-12T10:03:53.584Z,23.13
2018-10-12T10:06:23.382Z,23.18
2018-10-12T10:08:53.068Z,23.48
2018-10-12T10:11:22.531Z,23.38
2018-10-12T10:13:52.653Z,23.57
2018-10-12T10:16:22.287Z,23.74
2018-10-12T10:18:51.931Z,23.84
2018-10-12T10:21:21.766Z,23.78
2018-10-12T10:23:51.169Z,23.68
2018-10-12T10:26:20.688Z,23.70
2018-10-12T10:28:50.646Z,23.68
2018-10-12T10:31:20.334Z,23.86
2018-10-12T10:33:49.913Z,23.64
2018-10-12T10:36:19.442Z,23.39
2018-10-12T10:38:49.107Z,23.39
2018-10-12T10:41:18.831Z,23.84
2018-10-12T10:43:48.184Z,23.98
2018-10-12T10:46:17.593Z,23.66
2018-10-12T10:48:47.128Z,23.68
2018-10-12T10:51:16.708Z,23.46
2018-10-12T10:53:46.163Z,23.85
2018-10-12T10:56:15.435Z,23.54
2018-10-12T10:58:44.737Z,23.86
2018-10-12T11:01:14.205Z,24.09
2018-10-12T11:03:43.719Z,24.48
2018-10-12T11:06:13.140Z,24.41
2018-10-12T11:08:42.747Z,24.40
2018-10-12T11:11:12.294Z,24.63
2018-10-12T11:13:41.734Z,24.51
2018-10-12T11:16:11.577Z,24.21
2018-10-12T11:18:41.208Z,24.19
2018-10-12T11:21:10.824Z,24.49
2018-10-12T11:23:40.197Z,24.58
2018-10-12T11:26:09.579Z,24.84
2018-10-12T11:28:38.915Z,25.13
2018-10-12T11:31:08.702Z,25.27
2018-10-12T11:33:37.997Z,25.23
2018-10-12T11:36:07.427Z,25.15
2018-10-12T11:38:36.803Z,24.83
2018-10-12T11:41:06.764Z,25.04
2018-10-12T11:43:37.462Z,25.04
2018-10-12T11:46:07.015Z,25.02
2018-10-12T11:48:36.316Z,24.94
2018-10-12T11:51:05.696Z,25.14
2018-10-12T11:53:35.164Z,25.38
2018-10-12T11:56:04.591Z,25.04
2018-10-12T11:58:33.927Z,25.39
2018-10-12T12:01:03.354Z,25.60
2018-10-12T12:03:33.213Z,25.49
2018-10-12T12:06:02.530Z,25.23
2018-10-12T12:08:35.012Z,25.29
2018-10-12T12:11:04.718Z,25.49
2018-10-12T12:13:34.232Z,25.49
2018-10-12T12:16:03.519Z,25.50
2018-10-12T12:18:32.824Z,25.59
2018-10-12T12:21:02.120Z,25.80
2018-10-12T12:23:31.426Z,25.64
2018-10-12T12:26:01.308Z,25.61
2018-10-12T12:28:30.603Z,25.50
2018-10-12T12:31:00.030Z,25.36
2018-10-12T12:33:29.468Z,25.40
2018-10-12T12:35:58.885Z,25.30
2018-10-12T12:38:28.058Z,25.17
2018-10-12T12:40:57.450Z,25.70
2018-10-12T12:43:26.911Z,25.74
2018-10-12T12:45:56.480Z,25.63
2018-10-12T12:48:26.312Z,25.27
2018-10-12T12:50:55.578Z,25.42
2018-10-12T12:53:25.159Z,25.41
2018-10-12T12:55:54.761Z,25.35
2018-10-12T12:58:24.616Z,25.75
2018-10-12T13:00:54.347Z,25.66
2018-10-12T13:03:23.944Z,25.52
2018-10-12T13:05:53.679Z,25.59
2018-10-12T13:08:23.499Z,25.83
2018-10-12T13:10:53.262Z,25.60
2018-10-12T13:13:22.984Z,25.74
2018-10-12T13:15:52.701Z,25.68
2018-10-12T13:18:22.277Z,25.94
2018-10-12T13:20:52.114Z,25.96
2018-10-12T13:23:21.991Z,26.00
2018-10-12T13:25:51.694Z,25.99
2018-10-12T13:28:21.963Z,25.94
2018-10-12T13:30:51.655Z,25.73
2018-10-12T13:33:21.273Z,26.03
2018-10-12T13:35:51.075Z,26.12
2018-10-12T13:38:20.675Z,26.08
2018-10-12T13:40:50.664Z,26.10
2018-10-12T13:43:20.298Z,26.21
2018-10-12T13:45:49.671Z,25.79
2018-10-12T13:48:19.533Z,26.00
2018-10-12T13:50:49.018Z,26.09
2018-10-12T13:53:18.437Z,25.86
2018-10-12T13:55:47.806Z,25.88
2018-10-12T13:58:17.410Z,25.74
2018-10-12T14:00:46.725Z,25.78
2018-10-12T14:03:16.156Z,25.93
2018-10-12T14:05:45.523Z,25.83
2018-10-12T14:08:15.092Z,25.83
2018-10-12T14:10:44.528Z,25.84
2018-10-12T14:13:13.891Z,25.81
2018-10-12T14:15:43.249Z,25.66
2018-10-12T14:18:12.795Z,25.64
2018-10-12T14:20:42.038Z,25.63
2018-10-12T14:23:11.639Z,25.78
2018-10-12T14:25:40.947Z,25.78
2018-10-12T14:28:10.423Z,25.84
2018-10-12T14:30:39.827Z,25.66
2018-10-12T14:33:09.268Z,25.53
2018-10-12T14:35:38.672Z,25.71
2018-10-12T14:38:07.990Z,25.55
2018-10-12T14:40:38.284Z,25.42
2018-10-12T14:43:07.633Z,25.21
2018-10-12T14:45:36.918Z,25.07
2018-10-12T14:48:06.286Z,24.79
2018-10-12T14:50:35.629Z,24.58
2018-10-12T14:53:05.029Z,24.54
2018-10-12T14:55:34.276Z,24.52
2018-10-12T14:58:04.629Z,24.65
2018-10-12T15:00:33.933Z,24.76
2018-10-12T15:03:03.602Z,24.82
2018-10-12T15:05:32.937Z,24.66
2018-10-12T15:08:02.369Z,24.67
2018-10-12T15:10:31.708Z,24.68
2018-10-12T15:13:01.241Z,24.60
2018-10-12T15:15:30.562Z,24.55
2018-10-12T15:18:00.273Z,24.37
2018-10-12T15:20:29.578Z,24.38
2018-10-12T15:22:59.054Z,24.33
2018-10-12T15:25:28.379Z,24.35
2018-10-12T15:27:57.681Z,24.31
2018-10-12T15:30:27.074Z,24.03
2018-10-12T15:32:56.487Z,23.95
2018-10-12T15:35:25.962Z,23.99
2018-10-12T15:37:55.388Z,23.87
2018-10-12T15:40:25.186Z,23.77
2018-10-12T15:42:54.775Z,23.74
2018-10-12T15:45:24.403Z,23.75
2018-10-12T15:47:53.898Z,23.55
2018-10-12T15:50:23.342Z,23.54
2018-10-12T15:52:52.918Z,23.30
2018-10-12T15:55:22.505Z,23.19
2018-10-12T15:57:52.023Z,23.05
2018-10-12T16:00:21.697Z,22.99
2018-10-12T16:02:51.266Z,23.00
2018-10-12T16:05:20.885Z,22.78
2018-10-12T16:07:50.964Z,22.62
2018-10-12T16:10:20.658Z,22.43
2018-10-12T16:12:50.202Z,22.25
2018-10-12T16:15:19.942Z,22.21
2018-10-12T16:17:49.392Z,22.07
2018-10-12T16:20:19.869Z,22.03
2018-10-12T16:22:49.341Z,21.76
2018-10-12T16:26:08.697Z,21.55
2018-10-12T16:28:38.029Z,21.28
2018-10-12T16:31:07.334Z,21.07
2018-10-12T16:33:36.582Z,20.87
2018-10-12T16:36:05.951Z,20.66
2018-10-12T16:38:35.262Z,20.58
2018-10-12T16:41:04.539Z,20.47
2018-10-12T16:43:33.831Z,20.46
2018-10-12T16:46:03.230Z,20.28
2018-10-12T16:48:32.901Z,19.97
2018-10-12T16:51:02.247Z,19.70
2018-10-12T16:53:31.551Z,19.54
2018-10-12T16:56:00.923Z,19.36
2018-10-12T16:58:30.297Z,19.23
2018-10-12T17:00:59.675Z,19.22
2018-10-12T17:03:29.305Z,19.24
2018-10-12T17:05:58.706Z,19.03
2018-10-12T17:08:28.062Z,18.90
2018-10-12T17:10:57.417Z,18.86
2018-10-12T17:13:26.896Z,18.76
2018-10-12T17:15:56.350Z,18.67
2018-10-12T17:18:25.954Z,18.57
2018-10-12T17:20:55.370Z,18.46
2018-10-12T17:23:25.052Z,18.31
2018-10-12T17:25:54.550Z,18.20
2018-10-12T17:28:24.281Z,18.11
2018-10-12T17:30:54.123Z,18.02
2018-10-12T17:33:23.919Z,17.99
2018-10-12T17:35:54.160Z,17.87
2018-10-12T17:38:23.666Z,17.79
2018-10-12T17:40:53.163Z,17.77
2018-10-12T17:43:22.747Z,17.78
2018-10-12T17:45:52.232Z,17.75
2018-10-12T17:48:21.690Z,17.75
2018-10-12T17:50:51.218Z,17.71
2018-10-12T17:53:20.746Z,17.75
2018-10-12T17:55:50.275Z,17.78
2018-10-12T17:58:19.666Z,17.87
2018-10-12T18:00:49.092Z,17.77
2018-10-12T18:03:18.478Z,17.66
2018-10-12T18:05:47.786Z,17.52
2018-10-12T18:08:18.751Z,17.53
2018-10-12T18:10:49.094Z,17.59
2018-10-12T18:13:18.737Z,17.67
2018-10-12T18:15:48.248Z,17.65
2018-10-12T18:18:17.722Z,17.65
2018-10-12T18:20:47.133Z,17.78
2018-10-12T18:23:16.485Z,17.84
2018-10-12T18:25:45.834Z,17.70
2018-10-12T18:28:15.193Z,17.53
2018-10-12T18:30:44.493Z,17.49
2018-10-12T18:33:14.223Z,17.48
2018-10-12T18:35:43.555Z,17.38
2018-10-12T18:38:12.970Z,17.40
2018-10-12T18:40:42.354Z,17.40
2018-10-12T18:43:12.098Z,17.44
2018-10-12T18:45:41.427Z,17.52
2018-10-12T18:48:10.733Z,17.51
2018-10-12T18:50:40.134Z,17.39
2018-10-12T18:53:09.440Z,17.40
2018-10-12T18:55:39.069Z,17.50
2018-10-12T18:58:08.807Z,17.34
2018-10-12T19:00:38.384Z,17.40
2018-10-12T19:03:07.724Z,17.56
2018-10-12T19:05:37.796Z,17.49
2018-10-12T19:08:07.239Z,17.30
2018-10-12T19:10:36.754Z,17.24
2018-10-12T19:13:06.170Z,17.32
2018-10-12T19:15:35.468Z,17.17
2018-10-12T19:18:04.786Z,17.03
2018-10-12T19:20:34.137Z,16.99
2018-10-12T19:23:03.432Z,16.91
2018-10-12T19:25:32.750Z,16.81
2018-10-12T19:28:02.120Z,16.70
2018-10-12T19:30:31.423Z,16.60
2018-10-12T19:33:05.193Z,16.46
2018-10-12T19:35:34.473Z,16.35
2018-10-12T19:38:03.795Z,16.28
2018-10-12T19:40:33.891Z,16.18
2018-10-12T19:43:03.743Z,16.17
2018-10-12T19:45:33.165Z,16.24
2018-10-12T19:48:02.541Z,16.00
2018-10-12T19:50:31.920Z,15.84
2018-10-12T19:53:01.268Z,15.77
2018-10-12T19:55:30.584Z,15.61
2018-10-12T19:57:59.921Z,15.58
2018-10-12T20:00:29.443Z,15.48
2018-10-12T20:02:58.896Z,15.46
2018-10-12T20:05:28.615Z,15.45
2018-10-12T20:07:57.969Z,15.39
2018-10-12T20:10:27.396Z,15.40
2018-10-12T20:12:56.999Z,15.46
2018-10-12T20:15:26.350Z,15.29
2018-10-12T20:17:56.177Z,15.32
2018-10-12T20:20:25.863Z,15.21
2018-10-12T20:22:55.290Z,15.15
2018-10-12T20:25:24.835Z,15.18
2018-10-12T20:27:54.470Z,15.17
2018-10-12T20:30:23.797Z,15.11
2018-10-12T20:32:53.447Z,15.05
2018-10-12T20:35:22.938Z,15.06
2018-10-12T20:37:52.463Z,15.06
2018-10-12T20:40:22.089Z,15.04
2018-10-12T20:42:51.663Z,15.00
2018-10-12T20:45:21.351Z,14.99
2018-10-12T20:47:50.831Z,14.97
2018-10-12T20:50:20.287Z,14.89
2018-10-12T20:52:49.842Z,14.91
2018-10-12T20:55:19.471Z,14.83
2018-10-12T20:57:50.084Z,14.86
2018-10-12T21:00:20.215Z,14.90
2018-10-12T21:02:49.649Z,14.81
2018-10-12T21:05:18.967Z,14.71
2018-10-12T21:07:48.507Z,14.73
2018-10-12T21:10:17.966Z,14.63
2018-10-12T21:12:47.484Z,14.55
2018-10-12T21:15:17.011Z,14.47
2018-10-12T21:17:46.380Z,14.37
2018-10-12T21:20:15.722Z,14.35
2018-10-12T21:22:45.052Z,14.38
2018-10-12T21:25:14.465Z,14.38
2018-10-12T21:27:44.062Z,14.34
2018-10-12T21:30:13.645Z,14.29
2018-10-12T21:32:43.218Z,14.30
2018-10-12T21:35:12.791Z,14.30
2018-10-12T21:37:42.429Z,14.30
2018-10-12T21:40:12.027Z,14.26
2018-10-12T21:42:41.440Z,14.30
2018-10-12T21:45:10.875Z,14.25
2018-10-12T21:47:40.412Z,14.18
2018-10-12T21:50:09.913Z,14.14
2018-10-12T21:52:39.776Z,14.05
2018-10-12T21:55:09.170Z,14.02
2018-10-12T21:57:38.460Z,14.04
2018-10-12T22:00:07.934Z,14.12
2018-10-12T22:02:37.270Z,14.05
2018-10-12T22:05:06.578Z,14.09
2018-10-12T22:07:35.854Z,14.11
2018-10-12T22:10:05.463Z,14.10
2018-10-12T22:12:34.816Z,14.06
2018-10-12T22:15:04.159Z,13.98
2018-10-12T22:17:33.445Z,14.02
2018-10-12T22:20:02.753Z,13.99
2018-10-12T22:22:32.064Z,13.97
2018-10-12T22:25:01.389Z,13.86
2018-10-12T22:27:30.840Z,13.82
2018-10-12T22:30:00.191Z,13.80
2018-10-12T22:32:29.537Z,13.78
2018-10-12T22:34:59.094Z,13.75
2018-10-12T22:37:28.716Z,13.76
2018-10-12T22:39:58.536Z,13.71
2018-10-12T22:42:28.135Z,13.65
2018-10-12T22:44:58.009Z,13.62
2018-10-12T22:47:27.614Z,13.61
2018-10-12T22:49:57.396Z,13.60
2018-10-12T22:52:27.000Z,13.60
2018-10-12T22:54:56.834Z,13.57
2018-10-12T22:57:26.680Z,13.53
2018-10-12T22:59:56.686Z,13.53
2018-10-12T23:02:26.548Z,13.45
2018-10-12T23:04:56.436Z,13.44
2018-10-12T23:07:26.344Z,13.51
2018-10-12T23:09:56.231Z,13.84
2018-10-12T23:12:26.061Z,13.94
2018-10-12T23:14:55.915Z,13.90
2018-10-12T23:17:25.658Z,13.90
2018-10-12T23:19:55.491Z,13.79
2018-10-12T23:22:25.449Z,13.57
2018-10-12T23:24:55.473Z,13.44
2018-10-12T23:27:25.389Z,13.36
2018-10-12T23:29:55.397Z,13.26
2018-10-12T23:32:25.262Z,13.18
2018-10-12T23:34:55.176Z,13.15
2018-10-12T23:37:25.067Z,13.05
2018-10-12T23:39:55.219Z,13.00
2018-10-12T23:42:25.336Z,12.92
2018-10-12T23:44:55.595Z,12.86
2018-10-12T23:47:25.572Z,12.83
2018-10-12T23:49:55.282Z,12.85
2018-10-12T23:52:24.993Z,12.87
2018-10-12T23:54:54.869Z,12.88
2018-10-12T23:57:24.788Z,12.78
2018-10-12T23:59:54.740Z,12.71
